createdAt,value
2023-04-23T00:01:59.551Z,98986.63
2023-04-23T00:04:27.322Z,98981.91
2023-04-23T00:06:55.224Z,98978.03
2023-04-23T00:09:23.154Z,98982.75
2023-04-23T00:11:50.393Z,98982.34
2023-04-23T00:14:17.515Z,98987.94
2023-04-23T00:16:47.386Z,98989.78
2023-04-23T00:19:16.590Z,98985.91
2023-04-23T00:21:43.618Z,98984.69
2023-04-23T00:24:16.038Z,98989.22
2023-04-23T00:26:43.377Z,98991.69
2023-04-23T00:29:16.603Z,98994.16
2023-04-23T00:31:43.782Z,98993.31
2023-04-23T00:34:11.015Z,98997.06
2023-04-23T00:36:38.263Z,98996.44
2023-04-23T00:39:06.030Z,98997.28
2023-04-23T00:41:34.146Z,98996.44
2023-04-23T00:44:01.245Z,99001.38
2023-04-23T00:46:28.659Z,99007.97
2023-04-23T00:48:55.837Z,99012.31
2023-04-23T00:51:24.589Z,99008.38
2023-04-23T00:53:55.007Z,99004.66
2023-04-23T00:56:23.104Z,99011.03
2023-04-23T00:58:51.784Z,99011.25
2023-04-23T01:01:20.968Z,99011.25
2023-04-23T01:03:49.583Z,99014.97
2023-04-23T01:06:17.037Z,99015.38
2023-04-23T01:08:47.292Z,99010.25
2023-04-23T01:11:17.963Z,99017.03
2023-04-23T01:13:45.584Z,99009.63
2023-04-23T01:16:12.895Z,99019.72
2023-04-23T01:18:41.206Z,99016.19
2023-04-23T01:21:10.356Z,99016.84
2023-04-23T01:23:37.834Z,99017.22
2023-04-23T01:26:05.037Z,99013.09
2023-04-23T01:28:32.826Z,99023.22
2023-04-23T01:31:01.348Z,99011.69
2023-04-23T01:33:31.764Z,99021.34
2023-04-23T01:35:58.767Z,99018.66
2023-04-23T01:38:26.195Z,99015.78
2023-04-23T01:40:53.302Z,99017.44
2023-04-23T01:43:23.038Z,99022.78
2023-04-23T01:45:50.122Z,99023.41
2023-04-23T01:48:17.558Z,99020.50
2023-04-23T01:50:44.605Z,99029.13
2023-04-23T01:53:12.073Z,99025.66
2023-04-23T01:55:39.653Z,99028.09
2023-04-23T01:58:07.647Z,99031.38
2023-04-23T02:00:34.620Z,99030.34
2023-04-23T02:03:01.988Z,99033.00
2023-04-23T02:05:32.541Z,99037.53
2023-04-23T02:07:59.439Z,99037.13
2023-04-23T02:10:26.661Z,99032.59
2023-04-23T02:12:53.874Z,99028.72
2023-04-23T02:15:22.553Z,99037.13
2023-04-23T02:17:52.333Z,99041.63
2023-04-23T02:20:19.766Z,99041.03
2023-04-23T02:22:47.299Z,99050.28
2023-04-23T02:25:18.314Z,99037.97
2023-04-23T02:27:45.544Z,99049.06
2023-04-23T02:30:12.997Z,99047.06
2023-04-23T02:32:41.145Z,99051.38
2023-04-23T02:35:09.555Z,99053.22
2023-04-23T02:37:39.752Z,99050.75
2023-04-23T02:40:10.339Z,99053.44
2023-04-23T02:42:37.681Z,99049.72
2023-04-23T02:45:05.825Z,99054.03
2023-04-23T02:47:37.580Z,99048.91
2023-04-23T02:50:06.590Z,99056.72
2023-04-23T02:52:34.137Z,99065.97
2023-04-23T02:55:04.743Z,99061.03
2023-04-23T02:57:34.807Z,99069.25
2023-04-23T03:00:01.898Z,99065.91
2023-04-23T03:02:36.951Z,99065.50
2023-04-23T03:05:05.453Z,99071.63
2023-04-23T03:07:32.598Z,99070.81
2023-04-23T03:09:59.651Z,99077.59
2023-04-23T03:12:26.626Z,99077.72
2023-04-23T03:14:53.665Z,99078.09
2023-04-23T03:17:26.260Z,99075.16
2023-04-23T03:19:53.750Z,99082.06
2023-04-23T03:22:24.730Z,99086.06
2023-04-23T03:24:51.974Z,99081.00
2023-04-23T03:27:20.450Z,99087.25
2023-04-23T03:29:47.597Z,99090.81
2023-04-23T03:32:14.713Z,99087.91
2023-04-23T03:34:42.434Z,99099.19
2023-04-23T03:37:10.050Z,99100.84
2023-04-23T03:39:38.905Z,99109.53
2023-04-23T03:42:07.286Z,99108.03
2023-04-23T03:44:34.547Z,99098.91
2023-04-23T03:47:01.806Z,99100.47
2023-04-23T03:49:30.861Z,99100.06
2023-04-23T03:51:59.573Z,99112.06
2023-04-23T03:54:28.449Z,99104.28
2023-04-23T03:57:12.968Z,99116.44
2023-04-23T03:59:53.345Z,99106.28
2023-04-23T04:02:20.695Z,99116.75
2023-04-23T04:04:55.273Z,99123.50
2023-04-23T04:07:24.621Z,99120.75
2023-04-23T04:09:51.531Z,99121.13
2023-04-23T04:12:20.355Z,99119.34
2023-04-23T04:14:47.421Z,99118.50
2023-04-23T04:17:16.232Z,99131.81
2023-04-23T04:19:43.468Z,99120.63
2023-04-23T04:22:10.499Z,99130.63
2023-04-23T04:24:37.929Z,99137.78
2023-04-23T04:27:06.113Z,99129.25
2023-04-23T04:29:33.572Z,99131.69
2023-04-23T04:32:05.528Z,99137.41
2023-04-23T04:34:36.356Z,99150.78
2023-04-23T04:37:03.395Z,99136.44
2023-04-23T04:39:31.202Z,99141.84
2023-04-23T04:42:00.000Z,99145.22
2023-04-23T04:44:27.018Z,99146.00
2023-04-23T04:46:54.429Z,99144.81
2023-04-23T04:49:21.962Z,99148.03
2023-04-23T04:51:52.265Z,99148.31
2023-04-23T04:54:19.834Z,99147.91
2023-04-23T04:57:09.096Z,99150.75
2023-04-23T04:59:36.330Z,99152.97
2023-04-23T05:02:09.239Z,99157.47
2023-04-23T05:04:39.770Z,99156.16
2023-04-23T05:07:07.780Z,99152.38
2023-04-23T05:09:34.928Z,99152.13
2023-04-23T05:12:05.011Z,99165.88
2023-04-23T05:14:33.930Z,99166.03
2023-04-23T05:17:05.471Z,99157.97
2023-04-23T05:19:35.470Z,99165.66
2023-04-23T05:22:05.039Z,99167.09
2023-04-23T05:24:33.283Z,99172.19
2023-04-23T05:27:03.507Z,99161.63
2023-04-23T05:29:33.877Z,99173.13
2023-04-23T05:32:06.523Z,99162.94
2023-04-23T05:34:34.112Z,99171.31
2023-04-23T05:37:11.508Z,99172.25
2023-04-23T05:39:38.664Z,99175.13
2023-04-23T05:42:07.984Z,99168.09
2023-04-23T05:44:35.232Z,99178.84
2023-04-23T05:47:02.294Z,99179.19
2023-04-23T05:49:29.323Z,99170.25
2023-04-23T05:51:59.450Z,99183.66
2023-04-23T05:54:26.522Z,99180.47
2023-04-23T05:56:56.965Z,99182.50
2023-04-23T05:59:24.214Z,99189.03
2023-04-23T06:01:51.336Z,99189.63
2023-04-23T06:04:19.360Z,99181.91
2023-04-23T06:06:48.864Z,99191.13
2023-04-23T06:09:34.477Z,99196.53
2023-04-23T06:12:03.426Z,99198.91
2023-04-23T06:14:33.920Z,99195.06
2023-04-23T06:17:04.482Z,99203.53
2023-04-23T06:19:31.464Z,99204.84
2023-04-23T06:21:58.520Z,99198.16
2023-04-23T06:24:25.971Z,99201.56
2023-04-23T06:26:53.310Z,99202.75
2023-04-23T06:29:21.871Z,99204.56
2023-04-23T06:32:02.730Z,99206.00
2023-04-23T06:34:29.868Z,99209.91
2023-04-23T06:37:02.628Z,99203.16
2023-04-23T06:39:29.822Z,99204.66
2023-04-23T06:41:58.213Z,99199.72
2023-04-23T06:44:44.089Z,99210.22
2023-04-23T06:47:11.571Z,99210.22
2023-04-23T06:49:40.266Z,99214.50
2023-04-23T06:52:20.454Z,99213.38
2023-04-23T06:54:50.416Z,99211.00
2023-04-23T06:57:22.072Z,99208.03
2023-04-23T06:59:49.909Z,99209.09
2023-04-23T07:02:19.759Z,99208.75
2023-04-23T07:04:47.075Z,99212.59
2023-04-23T07:07:14.285Z,99221.84
2023-04-23T07:09:42.023Z,99214.56
2023-04-23T07:12:10.287Z,99220.72
2023-04-23T07:17:24.668Z,99217.59
2023-04-23T07:19:52.299Z,99198.13
2023-04-23T07:22:19.359Z,99215.31
2023-04-23T07:24:46.780Z,99215.41
2023-04-23T07:27:14.048Z,99215.41
2023-04-23T07:29:41.114Z,99211.34
2023-04-23T07:32:11.018Z,99223.56
2023-04-23T07:34:39.363Z,99218.97
2023-04-23T07:37:06.575Z,99216.50
2023-04-23T07:39:34.879Z,99217.69
2023-04-23T07:42:05.724Z,99218.16
2023-04-23T07:44:33.635Z,99218.06
2023-04-23T07:47:01.061Z,99211.44
2023-04-23T07:49:28.664Z,99225.19
2023-04-23T07:51:58.436Z,99221.59
2023-04-23T07:54:27.367Z,99216.75
2023-04-23T07:56:56.923Z,99216.84
2023-04-23T07:59:23.969Z,99211.47
2023-04-23T08:01:52.012Z,99206.81
2023-04-23T08:04:22.279Z,99212.38
2023-04-23T08:06:50.126Z,99205.94
2023-04-23T08:09:17.468Z,99212.75
2023-04-23T08:11:58.842Z,99206.75
2023-04-23T08:14:26.150Z,99196.81
2023-04-23T08:19:48.643Z,99218.34
2023-04-23T08:22:17.581Z,99213.94
2023-04-23T08:24:46.696Z,99203.13
2023-04-23T08:27:14.137Z,99209.56
2023-04-23T08:29:42.752Z,99210.84
2023-04-23T08:32:32.670Z,99216.22
2023-04-23T08:35:00.918Z,99210.22
2023-04-23T08:37:31.414Z,99214.72
2023-04-23T08:39:59.195Z,99216.66
2023-04-23T08:42:59.938Z,99225.84
2023-04-23T08:45:27.186Z,99212.31
2023-04-23T08:48:08.563Z,99211.44
2023-04-23T08:50:38.162Z,99206.47
2023-04-23T08:53:08.972Z,99206.09
2023-04-23T08:55:36.605Z,99208.84
2023-04-23T08:58:07.516Z,99199.28
2023-04-23T09:00:54.367Z,99195.91
2023-04-23T09:03:22.766Z,99186.13
2023-04-23T09:05:54.110Z,99195.66
2023-04-23T09:08:41.401Z,99189.19
2023-04-23T09:11:08.955Z,99188.47
2023-04-23T09:13:37.173Z,99179.59
2023-04-23T09:16:05.576Z,99173.75
2023-04-23T09:18:32.549Z,99177.28
2023-04-23T09:21:01.457Z,99184.56
2023-04-23T09:23:28.800Z,99182.66
2023-04-23T09:25:59.375Z,99175.69
2023-04-23T09:28:44.585Z,99179.16
2023-04-23T09:31:11.801Z,99184.00
2023-04-23T09:33:41.889Z,99175.84
2023-04-23T09:36:15.715Z,99160.97
2023-04-23T09:38:42.885Z,99178.50
2023-04-23T09:41:28.208Z,99171.41
2023-04-23T09:44:02.545Z,99176.69
2023-04-23T09:46:44.087Z,99167.97
2023-04-23T09:49:13.565Z,99177.16
2023-04-23T09:51:44.043Z,99156.16
2023-04-23T09:54:16.588Z,99160.34
2023-04-23T09:56:44.324Z,99163.03
2023-04-23T09:59:35.996Z,99165.69
2023-04-23T10:02:14.453Z,99167.63
2023-04-23T10:04:42.539Z,99179.78
2023-04-23T10:07:18.946Z,99158.19
2023-04-23T10:10:10.500Z,99158.53
2023-04-23T10:12:53.652Z,99154.06
2023-04-23T10:15:22.848Z,99153.56
2023-04-23T10:17:51.477Z,99150.31
2023-04-23T10:20:21.371Z,99154.34
2023-04-23T10:22:53.060Z,99156.22
2023-04-23T10:25:29.478Z,99143.63
2023-04-23T10:27:58.294Z,99147.97
2023-04-23T10:30:25.701Z,99157.06
2023-04-23T10:32:54.414Z,99183.03
2023-04-23T10:35:24.252Z,99154.19
2023-04-23T10:37:52.208Z,99161.41
2023-04-23T10:40:30.170Z,99143.91
2023-04-23T10:42:57.401Z,99147.06
2023-04-23T10:45:44.191Z,99156.28
2023-04-23T10:48:14.146Z,99139.88
2023-04-23T10:51:06.933Z,99138.09
2023-04-23T10:53:39.818Z,99142.34
2023-04-23T10:56:07.980Z,99145.72
2023-04-23T10:58:52.059Z,99143.84
2023-04-23T11:01:20.961Z,99139.03
2023-04-23T11:03:48.903Z,99142.94
2023-04-23T11:06:21.041Z,99136.19
2023-04-23T11:09:10.167Z,99134.03
2023-04-23T11:11:41.295Z,99133.13
2023-04-23T11:14:15.957Z,99125.19
2023-04-23T11:17:07.069Z,99132.44
2023-04-23T11:19:38.139Z,99120.94
2023-04-23T11:22:23.070Z,99126.22
2023-04-23T11:24:56.026Z,99136.72
2023-04-23T11:27:27.072Z,99132.91
2023-04-23T11:29:59.464Z,99121.06
2023-04-23T11:32:49.795Z,99114.25
2023-04-23T11:35:20.159Z,99136.53
2023-04-23T11:37:51.630Z,99129.59
2023-04-23T11:40:43.041Z,99139.16
2023-04-23T11:43:10.317Z,99118.06
2023-04-23T11:45:38.739Z,99115.31
2023-04-23T11:48:13.867Z,99114.28
2023-04-23T11:50:42.080Z,99093.28
2023-04-23T11:53:11.416Z,99100.19
2023-04-23T11:55:44.104Z,99103.28
2023-04-23T11:58:12.074Z,99109.00
2023-04-23T12:00:40.422Z,99098.69
2023-04-23T12:03:07.950Z,99112.56
2023-04-23T12:05:39.415Z,99106.00
2023-04-23T12:08:21.641Z,99100.44
2023-04-23T12:10:59.487Z,99105.88
2023-04-23T12:13:33.934Z,99092.78
2023-04-23T12:16:02.985Z,99101.91
2023-04-23T12:18:39.339Z,99104.69
2023-04-23T12:21:16.276Z,99108.34
2023-04-23T12:23:45.351Z,99103.91
2023-04-23T12:26:15.604Z,99104.09
2023-04-23T12:29:01.556Z,99103.91
2023-04-23T12:31:30.591Z,99107.75
2023-04-23T12:34:08.525Z,99090.59
2023-04-23T12:36:41.190Z,99077.75
2023-04-23T12:39:24.295Z,99087.69
2023-04-23T12:42:02.357Z,99077.16
2023-04-23T12:44:58.065Z,99082.84
2023-04-23T12:47:45.955Z,99076.09
2023-04-23T12:50:22.557Z,99079.03
2023-04-23T12:52:49.941Z,99081.75
2023-04-23T12:55:17.029Z,99084.56
2023-04-23T12:57:44.098Z,99075.34
2023-04-23T13:00:12.479Z,99088.31
2023-04-23T13:02:42.789Z,99072.38
2023-04-23T13:05:10.145Z,99073.97
2023-04-23T13:07:37.448Z,99077.00
2023-04-23T13:10:10.904Z,99073.22
2023-04-23T13:12:41.558Z,99086.00
2023-04-23T13:15:15.748Z,99072.44
2023-04-23T13:17:42.841Z,99073.75
2023-04-23T13:20:10.428Z,99067.97
2023-04-23T13:22:40.895Z,99075.72
2023-04-23T13:25:08.894Z,99078.59
2023-04-23T13:27:36.061Z,99081.00
2023-04-23T13:30:03.441Z,99079.34
2023-04-23T13:32:33.384Z,99073.19
2023-04-23T13:35:03.113Z,99063.34
2023-04-23T13:37:31.958Z,99063.28
2023-04-23T13:39:59.158Z,99069.16
2023-04-23T13:42:26.277Z,99069.34
2023-04-23T13:44:53.472Z,99073.81
2023-04-23T13:47:31.560Z,99077.13
2023-04-23T13:50:07.013Z,99072.34
2023-04-23T13:52:35.347Z,99081.28
2023-04-23T13:55:04.049Z,99072.00
2023-04-23T13:57:33.084Z,99071.81
2023-04-23T14:00:00.833Z,99055.94
2023-04-23T14:02:28.013Z,99062.63
2023-04-23T14:04:55.413Z,99072.53
2023-04-23T14:07:22.569Z,99055.19
2023-04-23T14:09:52.859Z,99080.47
2023-04-23T14:12:20.891Z,99055.88
2023-04-23T14:14:49.411Z,99073.63
2023-04-23T14:17:18.273Z,99076.16
2023-04-23T14:19:45.288Z,99072.59
2023-04-23T14:22:12.455Z,99068.81
2023-04-23T14:24:49.576Z,99073.03
2023-04-23T14:27:18.081Z,99079.38
2023-04-23T14:29:56.968Z,99071.59
2023-04-23T14:32:24.635Z,99071.34
2023-04-23T14:34:51.831Z,99073.66
2023-04-23T14:37:18.987Z,99071.16
2023-04-23T14:39:48.373Z,99072.19
2023-04-23T14:42:16.072Z,99057.78
2023-04-23T14:44:44.071Z,99057.25
2023-04-23T14:47:50.030Z,99064.09
2023-04-23T14:50:28.436Z,99058.41
2023-04-23T14:52:55.758Z,99059.38
2023-04-23T14:55:23.098Z,99066.88
2023-04-23T14:57:52.624Z,99050.13
2023-04-23T15:00:21.699Z,99045.63
2023-04-23T15:02:51.434Z,99059.19
2023-04-23T15:05:40.285Z,99064.47
2023-04-23T15:08:07.367Z,99059.72
2023-04-23T15:10:34.429Z,99056.06
2023-04-23T15:13:01.537Z,99059.78
2023-04-23T15:15:45.276Z,99066.03
2023-04-23T15:18:16.827Z,99058.25
2023-04-23T15:20:46.329Z,99057.34
2023-04-23T15:23:13.567Z,99054.25
2023-04-23T15:25:43.467Z,99063.38
2023-04-23T15:28:12.895Z,99057.13
2023-04-23T15:30:40.206Z,99061.22
2023-04-23T15:33:14.518Z,99068.91
2023-04-23T15:35:44.796Z,99044.34
2023-04-23T15:38:20.752Z,99050.75
2023-04-23T15:40:49.786Z,99063.81
2023-04-23T15:43:17.478Z,99064.47
2023-04-23T15:45:48.541Z,99065.53
2023-04-23T15:48:16.079Z,99066.25
2023-04-23T15:50:43.976Z,99062.03
2023-04-23T15:53:11.132Z,99062.53
2023-04-23T15:55:39.920Z,99070.34
2023-04-23T15:58:10.169Z,99069.63
2023-04-23T16:00:38.660Z,99076.84
2023-04-23T16:03:06.714Z,99068.81
2023-04-23T16:05:36.093Z,99073.22
2023-04-23T16:08:03.488Z,99065.94
2023-04-23T16:10:47.019Z,99069.06
2023-04-23T16:13:14.370Z,99058.25
2023-04-23T16:15:41.805Z,99059.69
2023-04-23T16:18:09.856Z,99070.88
2023-04-23T16:20:37.017Z,99075.03
2023-04-23T16:23:04.575Z,99068.06
2023-04-23T16:36:56.476Z,99076.81
2023-04-23T16:42:05.530Z,99093.34
2023-04-23T16:44:33.735Z,99064.66
2023-04-23T16:47:02.328Z,99079.97
2023-04-23T16:49:55.538Z,99087.88
2023-04-23T16:55:25.591Z,99076.56
2023-04-23T17:23:38.484Z,99107.16
2023-04-23T17:26:15.946Z,99122.34
2023-04-23T17:28:51.778Z,99136.25
2023-04-23T17:31:26.332Z,99129.44
2023-04-23T17:33:58.620Z,99136.78
2023-04-23T17:36:32.168Z,99126.97
2023-04-23T17:38:59.981Z,99139.50
2023-04-23T17:41:28.824Z,99131.84
2023-04-23T17:43:58.454Z,99142.75
2023-04-23T17:49:10.810Z,99130.75
2023-04-23T17:51:38.069Z,99130.19
2023-04-23T17:54:35.422Z,99151.94
2023-04-23T17:57:09.957Z,99152.97
2023-04-23T17:59:50.721Z,99128.16
2023-04-23T18:02:18.321Z,99137.66
2023-04-23T18:07:33.669Z,99156.00
2023-04-23T18:10:11.389Z,99156.47
2023-04-23T18:12:43.443Z,99155.28
2023-04-23T18:15:12.618Z,99168.28
2023-04-23T18:17:40.939Z,99134.56
2023-04-23T18:20:12.204Z,99160.66
2023-04-23T18:22:41.820Z,99167.94
2023-04-23T18:25:36.933Z,99167.28
2023-04-23T18:28:04.658Z,99169.25
2023-04-23T18:30:31.547Z,99164.06
2023-04-23T18:33:20.732Z,99170.59
2023-04-23T18:35:48.296Z,99169.94
2023-04-23T18:38:28.666Z,99172.59
2023-04-23T18:40:55.892Z,99177.91
2023-04-23T18:43:41.459Z,99167.50
2023-04-23T18:46:12.297Z,99174.47
2023-04-23T18:48:45.840Z,99170.66
2023-04-23T18:51:31.109Z,99167.91
2023-04-23T18:53:58.632Z,99150.84
2023-04-23T18:59:08.567Z,99167.53
2023-04-23T19:01:36.611Z,99164.75
2023-04-23T19:04:04.085Z,99172.81
2023-04-23T19:06:31.679Z,99170.75
2023-04-23T19:08:59.597Z,99170.75
2023-04-23T19:11:30.849Z,99166.72
2023-04-23T19:13:58.029Z,99159.84
2023-04-23T19:16:25.957Z,99162.38
2023-04-23T19:18:53.250Z,99170.34
2023-04-23T19:21:23.097Z,99184.81
2023-04-23T19:23:53.012Z,99186.66
2023-04-23T19:26:20.260Z,99163.25
2023-04-23T19:28:47.414Z,99182.41
2023-04-23T19:31:14.807Z,99169.97
2023-04-23T19:33:45.415Z,99178.50
2023-04-23T19:36:12.566Z,99176.03
2023-04-23T19:38:40.051Z,99175.28
2023-04-23T19:41:11.863Z,99185.47
2023-04-23T19:43:48.071Z,99173.44
2023-04-23T19:46:41.094Z,99179.41
2023-04-23T19:49:09.366Z,99170.66
2023-04-23T19:51:38.200Z,99188.19
2023-04-23T19:54:07.592Z,99174.84
2023-04-23T19:56:36.150Z,99174.34
2023-04-23T19:59:03.206Z,99180.09
2023-04-23T20:01:30.415Z,99180.72
2023-04-23T20:03:57.628Z,99181.78
2023-04-23T20:06:24.778Z,99186.38
2023-04-23T20:09:10.425Z,99180.97
2023-04-23T20:11:37.553Z,99184.16
2023-04-23T20:14:06.051Z,99184.47
2023-04-23T20:16:33.239Z,99179.72
2023-04-23T20:19:02.618Z,99181.28
2023-04-23T20:21:32.185Z,99187.56
2023-04-23T20:24:14.095Z,99188.47
2023-04-23T20:26:42.500Z,99185.81
2023-04-23T20:29:09.870Z,99188.41
2023-04-23T20:31:39.409Z,99190.22
2023-04-23T20:34:07.131Z,99188.22
2023-04-23T20:36:35.784Z,99185.91
2023-04-23T20:39:06.154Z,99180.75
2023-04-23T20:41:36.934Z,99185.50
2023-04-23T20:44:07.498Z,99192.63
2023-04-23T20:47:04.309Z,99189.81
2023-04-23T20:52:16.083Z,99188.94
2023-04-23T20:54:45.919Z,99189.91
2023-04-23T20:57:17.949Z,99185.81
2023-04-23T20:59:47.532Z,99196.69
2023-04-23T21:02:15.409Z,99195.63
2023-04-23T21:04:42.578Z,99190.84
2023-04-23T21:07:13.468Z,99190.94
2023-04-23T21:09:40.939Z,99201.88
2023-04-23T21:12:08.588Z,99190.25
2023-04-23T21:14:46.592Z,99191.78
2023-04-23T21:17:13.643Z,99200.13
2023-04-23T21:19:41.864Z,99197.06
2023-04-23T21:22:09.301Z,99194.00
2023-04-23T21:24:36.246Z,99203.16
2023-04-23T21:27:03.940Z,99195.88
2023-04-23T21:29:33.098Z,99208.75
2023-04-23T21:32:01.689Z,99196.91
2023-04-23T21:34:30.010Z,99201.94
2023-04-23T21:37:11.564Z,99201.84
2023-04-23T21:39:38.519Z,99201.94
2023-04-23T21:42:07.679Z,99204.50
2023-04-23T21:44:38.376Z,99212.28
2023-04-23T21:47:11.637Z,99199.75
2023-04-23T21:49:39.864Z,99207.38
2023-04-23T21:52:09.028Z,99199.59
2023-04-23T21:54:40.507Z,99200.81
2023-04-23T21:57:09.082Z,99205.97
2023-04-23T21:59:36.193Z,99202.88
2023-04-23T22:02:03.337Z,99206.53
2023-04-23T22:04:30.837Z,99207.84
2023-04-23T22:07:03.544Z,99207.28
2023-04-23T22:09:30.804Z,99213.22
2023-04-23T22:12:02.300Z,99222.84
2023-04-23T22:14:29.835Z,99213.69
2023-04-23T22:17:02.010Z,99210.88
2023-04-23T22:19:31.206Z,99211.94
2023-04-23T22:21:58.451Z,99212.97
2023-04-23T22:24:25.643Z,99210.75
2023-04-23T22:26:52.720Z,99215.69
2023-04-23T22:29:19.642Z,99209.94
2023-04-23T22:31:46.633Z,99219.00
2023-04-23T22:34:13.712Z,99213.81
2023-04-23T22:36:43.291Z,99214.53
2023-04-23T22:39:28.565Z,99225.91
2023-04-23T22:41:56.775Z,99213.97
2023-04-23T22:44:27.399Z,99210.44
2023-04-23T22:46:56.277Z,99216.63
2023-04-23T22:49:25.661Z,99218.06
2023-04-23T22:51:58.761Z,99220.19
2023-04-23T22:54:25.808Z,99211.38
2023-04-23T22:56:53.236Z,99218.41
2023-04-23T22:59:21.020Z,99215.59
2023-04-23T23:01:48.496Z,99217.09
2023-04-23T23:04:16.034Z,99220.63
2023-04-23T23:06:43.407Z,99218.28
2023-04-23T23:09:13.203Z,99213.59
2023-04-23T23:11:40.235Z,99223.91
2023-04-23T23:14:07.386Z,99227.28
2023-04-23T23:16:39.761Z,99224.13
2023-04-23T23:19:08.317Z,99217.22
2023-04-23T23:21:35.357Z,99220.13
2023-04-23T23:24:03.641Z,99229.41
2023-04-23T23:26:30.882Z,99219.91
2023-04-23T23:28:57.916Z,99219.53
2023-04-23T23:31:26.107Z,99222.72
2023-04-23T23:33:53.805Z,99222.81
2023-04-23T23:36:21.060Z,99223.06
2023-04-23T23:38:48.072Z,99221.16
2023-04-23T23:41:15.105Z,99221.16
2023-04-23T23:43:43.448Z,99227.00
2023-04-23T23:46:11.776Z,99229.56
2023-04-23T23:48:38.914Z,99227.22
2023-04-23T23:51:05.900Z,99221.44
2023-04-23T23:53:32.847Z,99221.56
2023-04-23T23:56:00.437Z,99219.91
2023-04-23T23:58:29.478Z,99221.66
